createdAt,value
2019-03-23T00:00:12.956Z,25.77
2019-03-23T00:02:42.528Z,24.87
2019-03-23T00:05:11.071Z,26.93
2019-03-23T00:07:39.306Z,25.90
2019-03-23T00:10:08.256Z,25.63
2019-03-23T00:12:38.052Z,26.33
2019-03-23T00:15:08.850Z,25.75
2019-03-23T00:17:37.117Z,27.50
2019-03-23T00:20:06.811Z,26.87
2019-03-23T00:22:35.808Z,26.23
2019-03-23T00:25:04.614Z,28.73
2019-03-23T00:27:33.001Z,27.53
2019-03-23T00:30:01.263Z,27.50
2019-03-23T00:32:29.666Z,27.90
2019-03-23T00:34:57.910Z,29.00
2019-03-23T00:37:27.787Z,27.33
2019-03-23T00:39:56.032Z,28.83
2019-03-23T00:42:24.265Z,28.70
2019-03-23T00:44:52.581Z,27.67
2019-03-23T00:47:20.838Z,27.00
2019-03-23T00:49:49.245Z,27.27
2019-03-23T00:52:17.468Z,27.95
2019-03-23T00:54:45.737Z,28.87
2019-03-23T00:57:13.978Z,25.57
2019-03-23T00:59:42.221Z,28.07
2019-03-23T01:02:10.491Z,28.23
2019-03-23T01:04:38.835Z,28.92
2019-03-23T01:07:07.325Z,25.37
2019-03-23T01:09:35.579Z,28.47
2019-03-23T01:12:03.895Z,29.30
2019-03-23T01:14:32.398Z,31.00
2019-03-23T01:17:00.663Z,25.43
2019-03-23T01:19:28.906Z,28.43
2019-03-23T01:21:57.157Z,27.23
2019-03-23T01:24:25.404Z,27.80
2019-03-23T01:26:53.643Z,27.80
2019-03-23T01:29:21.881Z,27.77
2019-03-23T01:31:50.134Z,26.93
2019-03-23T01:34:18.418Z,24.87
2019-03-23T01:36:46.665Z,26.25
2019-03-23T01:39:14.903Z,25.57
2019-03-23T01:41:43.142Z,27.03
2019-03-23T01:44:11.385Z,24.30
2019-03-23T01:46:39.651Z,26.83
2019-03-23T01:49:09.526Z,27.30
2019-03-23T01:51:37.765Z,23.60
2019-03-23T01:54:06.027Z,25.50
2019-03-23T01:56:34.283Z,24.03
2019-03-23T01:59:02.585Z,25.50
2019-03-23T02:01:30.999Z,23.93
2019-03-23T02:03:59.238Z,22.67
2019-03-23T02:06:27.531Z,23.87
2019-03-23T02:08:56.493Z,24.23
2019-03-23T02:11:24.746Z,23.90
2019-03-23T02:13:52.980Z,24.50
2019-03-23T02:16:21.248Z,26.52
2019-03-23T02:18:49.494Z,23.87
2019-03-23T02:21:17.801Z,25.40
2019-03-23T02:23:46.058Z,23.20
2019-03-23T02:26:14.306Z,22.95
2019-03-23T02:28:42.566Z,22.73
2019-03-23T02:31:10.830Z,25.77
2019-03-23T02:33:39.072Z,24.03
2019-03-23T02:36:08.800Z,24.67
2019-03-23T02:38:37.058Z,22.83
2019-03-23T02:41:06.237Z,23.00
2019-03-23T02:43:34.492Z,23.57
2019-03-23T02:46:05.313Z,22.23
2019-03-23T02:48:33.734Z,24.10
2019-03-23T02:51:02.677Z,21.57
2019-03-23T02:53:30.949Z,20.87
2019-03-23T02:55:59.193Z,22.20
2019-03-23T02:58:27.431Z,22.30
2019-03-23T03:00:55.710Z,21.47
2019-03-23T03:03:23.973Z,21.53
2019-03-23T03:05:52.285Z,20.83
2019-03-23T03:08:20.623Z,21.60
2019-03-23T03:10:49.527Z,20.90
2019-03-23T03:13:17.775Z,20.83
2019-03-23T03:15:46.021Z,22.03
2019-03-23T03:18:14.262Z,21.60
2019-03-23T03:20:42.502Z,21.53
2019-03-23T03:23:10.749Z,21.73
2019-03-23T03:25:38.997Z,21.37
2019-03-23T03:28:07.232Z,22.37
2019-03-23T03:30:35.671Z,22.20
2019-03-23T03:33:03.989Z,19.93
2019-03-23T03:35:32.252Z,20.60
2019-03-23T03:38:00.570Z,23.27
2019-03-23T03:40:29.085Z,22.10
2019-03-23T03:42:57.333Z,19.97
2019-03-23T03:45:28.539Z,21.35
2019-03-23T03:47:57.006Z,19.97
2019-03-23T03:50:25.314Z,19.63
2019-03-23T03:52:53.578Z,20.03
2019-03-23T03:55:21.818Z,19.50
2019-03-23T03:57:50.084Z,19.80
2019-03-23T04:00:18.344Z,21.80
2019-03-23T04:02:46.646Z,21.53
2019-03-23T04:05:14.936Z,20.93
2019-03-23T04:07:43.197Z,21.03
2019-03-23T04:10:11.439Z,18.17
2019-03-23T04:12:40.995Z,21.03
2019-03-23T04:15:10.999Z,21.10
2019-03-23T04:17:39.248Z,22.03
2019-03-23T04:20:12.140Z,18.05
2019-03-23T04:22:40.399Z,19.13
2019-03-23T04:25:09.672Z,20.30
2019-03-23T04:27:37.947Z,21.07
2019-03-23T04:30:09.252Z,20.60
2019-03-23T04:32:37.506Z,19.70
2019-03-23T04:35:07.887Z,22.45
2019-03-23T04:37:36.352Z,21.17
2019-03-23T04:40:06.887Z,20.67
2019-03-23T04:42:35.133Z,21.40
2019-03-23T04:45:04.337Z,20.80
2019-03-23T04:47:32.586Z,19.90
2019-03-23T04:50:00.973Z,20.90
2019-03-23T04:52:29.277Z,20.50
2019-03-23T04:54:57.522Z,20.97
2019-03-23T04:57:25.833Z,20.53
2019-03-23T04:59:54.193Z,19.70
2019-03-23T05:02:22.506Z,21.73
2019-03-23T05:04:50.759Z,22.03
2019-03-23T05:07:19.501Z,19.77
2019-03-23T05:09:47.730Z,20.13
2019-03-23T05:12:15.974Z,20.07
2019-03-23T05:14:44.355Z,20.57
2019-03-23T05:17:12.606Z,21.60
2019-03-23T05:19:40.849Z,21.57
2019-03-23T05:22:09.098Z,20.97
2019-03-23T05:24:37.338Z,20.52
2019-03-23T05:27:06.218Z,21.87
2019-03-23T05:29:34.482Z,22.07
2019-03-23T05:32:02.730Z,21.23
2019-03-23T05:34:30.969Z,22.52
2019-03-23T05:36:59.421Z,20.73
2019-03-23T05:39:27.663Z,21.53
2019-03-23T05:41:55.893Z,22.47
2019-03-23T05:44:26.586Z,20.93
2019-03-23T05:46:54.819Z,19.00
2019-03-23T05:49:23.086Z,19.50
2019-03-23T05:51:51.385Z,21.80
2019-03-23T05:54:19.704Z,23.00
2019-03-23T05:56:47.961Z,22.27
2019-03-23T05:59:16.234Z,22.10
2019-03-23T06:01:44.485Z,20.67
2019-03-23T06:04:12.726Z,21.10
2019-03-23T06:06:40.983Z,20.97
2019-03-23T06:09:09.231Z,20.43
2019-03-23T06:11:37.558Z,20.83
2019-03-23T06:14:06.603Z,19.97
2019-03-23T06:16:35.102Z,22.00
2019-03-23T06:19:04.974Z,21.83
2019-03-23T06:21:33.253Z,20.20
2019-03-23T06:24:01.493Z,21.52
2019-03-23T06:26:29.830Z,21.30
2019-03-23T06:28:58.105Z,21.07
2019-03-23T06:31:26.353Z,22.60
2019-03-23T06:33:54.667Z,22.20
2019-03-23T06:36:23.037Z,22.20
2019-03-23T06:38:51.364Z,20.37
2019-03-23T06:41:19.598Z,20.77
2019-03-23T06:43:47.853Z,21.30
2019-03-23T06:46:18.248Z,21.57
2019-03-23T06:48:48.117Z,21.33
2019-03-23T06:51:16.419Z,20.73
2019-03-23T06:53:44.801Z,19.50
2019-03-23T06:56:13.049Z,20.95
2019-03-23T06:58:41.478Z,18.67
2019-03-23T07:01:09.737Z,20.57
2019-03-23T07:03:37.978Z,20.20
2019-03-23T07:06:06.575Z,20.27
2019-03-23T07:08:34.823Z,19.63
2019-03-23T07:11:03.143Z,20.77
2019-03-23T07:13:31.391Z,20.70
2019-03-23T07:15:59.633Z,23.30
2019-03-23T07:18:27.873Z,24.87
2019-03-23T07:20:56.125Z,21.73
2019-03-23T07:23:24.370Z,21.40
2019-03-23T07:25:52.612Z,22.23
2019-03-23T07:28:20.857Z,21.40
2019-03-23T07:30:49.094Z,20.30
2019-03-23T07:33:17.450Z,20.23
2019-03-23T07:35:46.006Z,21.80
2019-03-23T07:38:14.337Z,22.00
2019-03-23T07:40:42.597Z,24.10
2019-03-23T07:43:10.841Z,21.90
2019-03-23T07:45:39.091Z,20.90
2019-03-23T07:48:07.344Z,21.43
2019-03-23T07:50:35.604Z,21.30
2019-03-23T07:53:03.839Z,21.97
2019-03-23T07:55:32.077Z,21.73
2019-03-23T07:58:00.342Z,20.90
2019-03-23T08:00:28.605Z,21.27
2019-03-23T08:02:56.851Z,21.60
2019-03-23T08:05:25.114Z,22.83
2019-03-23T08:07:53.342Z,21.50
2019-03-23T08:10:28.986Z,20.97
2019-03-23T08:12:57.509Z,22.77
2019-03-23T08:15:25.749Z,20.80
2019-03-23T08:17:54.371Z,21.20
2019-03-23T08:20:22.875Z,20.40
2019-03-23T08:22:51.210Z,21.60
2019-03-23T08:25:19.451Z,19.50
2019-03-23T08:27:47.907Z,21.43
2019-03-23T08:30:16.321Z,21.73
2019-03-23T08:32:44.583Z,20.07
2019-03-23T08:35:12.851Z,19.63
2019-03-23T08:37:41.094Z,21.47
2019-03-23T08:40:09.328Z,18.20
2019-03-23T08:42:37.637Z,20.47
2019-03-23T08:45:06.496Z,20.55
2019-03-23T08:47:34.802Z,20.20
2019-03-23T08:50:03.848Z,19.30
2019-03-23T08:52:32.119Z,19.73
2019-03-23T08:55:00.406Z,20.37
2019-03-23T08:57:28.666Z,21.20
2019-03-23T08:59:56.918Z,22.47
2019-03-23T09:02:25.170Z,20.60
2019-03-23T09:04:53.429Z,18.73
2019-03-23T09:07:21.677Z,20.27
2019-03-23T09:09:58.862Z,19.40
2019-03-23T09:12:20.197Z,17.60
2019-03-23T09:14:48.461Z,19.17
2019-03-23T09:17:16.698Z,19.40
2019-03-23T09:19:45.047Z,19.47
2019-03-23T09:22:13.564Z,20.37
2019-03-23T09:24:41.865Z,17.87
2019-03-23T09:27:12.567Z,18.73
2019-03-23T09:29:41.042Z,18.67
2019-03-23T09:32:09.281Z,19.67
2019-03-23T09:34:56.973Z,20.00
2019-03-23T09:37:25.218Z,18.87
2019-03-23T09:39:53.465Z,19.83
2019-03-23T09:42:21.716Z,18.57
2019-03-23T09:44:51.223Z,18.47
2019-03-23T09:47:19.459Z,18.67
2019-03-23T09:49:47.878Z,17.47
2019-03-23T09:52:35.718Z,17.63
2019-03-23T09:55:05.422Z,18.90
2019-03-23T09:57:33.666Z,18.07
2019-03-23T10:00:01.908Z,18.67
2019-03-23T10:02:30.162Z,16.30
2019-03-23T10:04:58.405Z,16.67
2019-03-23T10:07:26.716Z,16.03
2019-03-23T10:09:54.985Z,17.67
2019-03-23T10:12:23.273Z,18.67
2019-03-23T10:14:52.053Z,16.70
2019-03-23T10:17:20.310Z,16.17
2019-03-23T10:19:48.560Z,17.73
2019-03-23T10:22:17.077Z,19.73
2019-03-23T10:24:46.101Z,16.75
2019-03-23T10:27:14.352Z,16.87
2019-03-23T10:29:42.581Z,19.93
2019-03-23T10:32:10.849Z,14.63
2019-03-23T10:34:39.101Z,17.40
2019-03-23T10:37:07.349Z,15.87
2019-03-23T10:39:35.681Z,15.40
2019-03-23T10:42:03.931Z,15.93
2019-03-23T10:44:32.173Z,14.80
2019-03-23T10:47:00.581Z,16.67
2019-03-23T10:49:28.891Z,16.20
2019-03-23T10:51:57.137Z,17.20
2019-03-23T10:54:25.487Z,16.53
2019-03-23T10:56:53.742Z,16.53
2019-03-23T10:59:21.975Z,15.57
2019-03-23T11:01:50.349Z,16.57
2019-03-23T11:04:18.642Z,16.27
2019-03-23T11:06:46.889Z,15.23
2019-03-23T11:09:15.154Z,15.27
2019-03-23T11:11:43.410Z,15.43
2019-03-23T11:14:11.647Z,15.60
2019-03-23T11:16:39.923Z,16.60
2019-03-23T11:19:13.340Z,17.20
2019-03-23T11:21:38.130Z,17.03
2019-03-23T11:24:06.437Z,14.07
2019-03-23T11:26:34.661Z,16.05
2019-03-23T11:29:02.910Z,15.70
2019-03-23T11:31:31.182Z,15.13
2019-03-23T11:33:59.408Z,15.97
2019-03-23T11:36:27.681Z,14.00
2019-03-23T11:38:56.134Z,15.67
2019-03-23T11:41:24.385Z,13.45
2019-03-23T11:43:54.082Z,12.37
2019-03-23T11:46:22.349Z,13.80
2019-03-23T11:48:50.584Z,14.80
2019-03-23T11:51:18.885Z,13.50
2019-03-23T11:53:47.240Z,15.03
2019-03-23T11:56:15.514Z,13.40
2019-03-23T11:58:43.755Z,13.83
2019-03-23T12:01:12.012Z,15.37
2019-03-23T12:03:40.246Z,16.30
2019-03-23T12:06:08.496Z,15.40
2019-03-23T12:08:36.765Z,15.67
2019-03-23T12:11:05.010Z,14.87
2019-03-23T12:13:33.253Z,15.33
2019-03-23T12:16:01.513Z,12.50
2019-03-23T12:18:29.775Z,14.63
2019-03-23T12:20:58.046Z,14.07
2019-03-23T12:23:26.375Z,14.80
2019-03-23T12:25:54.620Z,14.80
2019-03-23T12:28:23.396Z,14.95
2019-03-23T12:30:51.837Z,14.37
2019-03-23T12:33:21.470Z,13.45
2019-03-23T12:35:49.895Z,15.18
2019-03-23T12:38:18.154Z,16.10
2019-03-23T12:40:46.379Z,14.37
2019-03-23T12:43:14.619Z,15.40
2019-03-23T12:45:42.871Z,14.73
2019-03-23T12:48:11.131Z,13.83
2019-03-23T12:50:39.367Z,15.97
2019-03-23T12:53:07.626Z,13.80
2019-03-23T12:55:35.881Z,14.50
2019-03-23T12:58:04.120Z,15.47
2019-03-23T13:00:32.661Z,15.50
2019-03-23T13:03:00.932Z,13.37
2019-03-23T13:05:29.230Z,14.30
2019-03-23T13:07:57.489Z,15.20
2019-03-23T13:10:25.747Z,14.55
2019-03-23T13:12:54.092Z,14.63
2019-03-23T13:15:22.342Z,14.33
2019-03-23T13:17:50.618Z,15.80
2019-03-23T13:20:18.896Z,14.30
2019-03-23T13:22:47.190Z,13.63
2019-03-23T13:25:15.435Z,13.93
2019-03-23T13:27:44.866Z,16.27
2019-03-23T13:30:17.064Z,15.60
2019-03-23T13:32:45.313Z,16.87
2019-03-23T13:35:13.550Z,15.80
2019-03-23T13:37:42.055Z,16.40
2019-03-23T13:40:11.347Z,16.43
2019-03-23T13:42:39.650Z,17.57
2019-03-23T13:45:07.984Z,16.30
2019-03-23T13:47:36.237Z,15.27
2019-03-23T13:50:06.234Z,13.13
2019-03-23T13:52:34.480Z,16.53
2019-03-23T13:55:02.713Z,16.83
2019-03-23T13:57:30.970Z,18.17
2019-03-23T13:59:59.227Z,16.10
2019-03-23T14:02:27.474Z,17.30
2019-03-23T14:04:55.717Z,18.48
2019-03-23T14:07:24.075Z,16.73
2019-03-23T14:09:52.307Z,17.90
2019-03-23T14:12:20.598Z,14.67
2019-03-23T14:14:49.234Z,15.20
2019-03-23T14:17:17.483Z,14.87
2019-03-23T14:19:45.722Z,14.73
2019-03-23T14:22:13.981Z,14.33
2019-03-23T14:24:42.227Z,15.27
2019-03-23T14:27:10.483Z,13.70
2019-03-23T14:29:39.570Z,13.10
2019-03-23T14:32:08.149Z,11.43
2019-03-23T14:34:36.386Z,11.87
2019-03-23T14:37:04.709Z,10.03
2019-03-23T14:39:32.975Z,10.50
2019-03-23T14:42:04.858Z,9.00
2019-03-23T14:44:31.183Z,8.63
2019-03-23T14:46:59.417Z,7.87
2019-03-23T14:49:27.664Z,8.10
2019-03-23T14:51:55.914Z,7.57
2019-03-23T14:54:24.166Z,8.27
2019-03-23T14:56:52.403Z,8.37
2019-03-23T14:59:20.650Z,7.60
2019-03-23T15:01:48.893Z,7.60
2019-03-23T15:04:17.134Z,6.43
2019-03-23T15:06:45.387Z,6.10
2019-03-23T15:09:13.895Z,5.30
2019-03-23T15:11:42.125Z,5.17
2019-03-23T15:14:10.380Z,5.30
2019-03-23T15:16:38.646Z,4.47
2019-03-23T15:19:06.883Z,4.70
2019-03-23T15:21:35.132Z,4.07
2019-03-23T15:24:03.436Z,2.97
2019-03-23T15:26:31.653Z,3.57
2019-03-23T15:28:59.961Z,3.20
2019-03-23T15:31:28.193Z,3.10
2019-03-23T15:33:56.734Z,3.03
2019-03-23T15:36:25.038Z,3.07
2019-03-23T15:38:53.271Z,2.70
2019-03-23T15:41:21.506Z,1.97
2019-03-23T15:43:49.759Z,2.47
2019-03-23T15:46:17.999Z,2.37
2019-03-23T15:48:48.267Z,2.35
2019-03-23T15:51:16.531Z,1.50
2019-03-23T15:53:45.042Z,1.40
2019-03-23T15:56:13.266Z,1.50
2019-03-23T15:58:41.521Z,1.97
2019-03-23T16:01:09.753Z,1.40
2019-03-23T16:03:38.020Z,1.77
2019-03-23T16:06:06.903Z,1.32
2019-03-23T16:08:35.165Z,1.67
2019-03-23T16:11:03.428Z,1.40
2019-03-23T16:13:31.690Z,2.00
2019-03-23T16:16:00.313Z,1.50
2019-03-23T16:18:28.553Z,1.73
2019-03-23T16:20:56.895Z,1.77
2019-03-23T16:23:25.139Z,1.77
2019-03-23T16:25:53.378Z,1.60
2019-03-23T16:28:21.631Z,1.83
2019-03-23T16:30:51.536Z,1.53
2019-03-23T16:33:19.775Z,2.50
2019-03-23T16:35:48.020Z,1.23
2019-03-23T16:38:18.074Z,1.42
2019-03-23T16:40:47.662Z,1.67
2019-03-23T16:43:15.926Z,1.60
2019-03-23T16:45:45.794Z,1.90
2019-03-23T16:48:14.126Z,1.60
2019-03-23T16:50:42.348Z,1.93
2019-03-23T16:53:10.669Z,1.70
2019-03-23T16:55:38.897Z,1.70
2019-03-23T16:58:15.736Z,1.27
2019-03-23T17:00:37.783Z,2.17
2019-03-23T17:03:06.524Z,1.40
2019-03-23T17:05:36.419Z,1.53
2019-03-23T17:08:05.616Z,1.97
2019-03-23T17:10:33.853Z,1.30
2019-03-23T17:13:02.109Z,1.93
2019-03-23T17:15:30.345Z,1.63
2019-03-23T17:17:58.585Z,1.63
2019-03-23T17:20:26.842Z,2.23
2019-03-23T17:22:55.072Z,2.23
2019-03-23T17:25:23.305Z,1.83
2019-03-23T17:27:51.562Z,2.57
2019-03-23T17:30:19.810Z,1.77
2019-03-23T17:32:48.145Z,1.87
2019-03-23T17:35:16.382Z,2.10
2019-03-23T17:37:44.834Z,2.33
2019-03-23T17:40:13.437Z,1.67
2019-03-23T17:42:41.679Z,1.60
2019-03-23T17:45:09.915Z,2.10
2019-03-23T17:47:38.159Z,1.77
2019-03-23T17:50:07.085Z,2.22
2019-03-23T17:52:35.321Z,1.90
2019-03-23T17:55:05.580Z,1.80
2019-03-23T17:57:33.841Z,1.87
2019-03-23T18:00:02.482Z,2.10
2019-03-23T18:02:30.715Z,2.20
2019-03-23T18:04:59.727Z,2.37
2019-03-23T18:07:27.965Z,1.47
2019-03-23T18:09:56.199Z,2.23
2019-03-23T18:12:24.743Z,1.90
2019-03-23T18:14:53.177Z,1.57
2019-03-23T18:17:21.498Z,2.07
2019-03-23T18:19:49.737Z,1.60
2019-03-23T18:22:17.975Z,2.30
2019-03-23T18:24:46.213Z,2.10
2019-03-23T18:27:14.529Z,1.93
2019-03-23T18:29:42.766Z,1.90
2019-03-23T18:32:11.001Z,1.60
2019-03-23T18:34:40.294Z,1.83
2019-03-23T18:37:10.015Z,1.50
2019-03-23T18:39:38.598Z,1.70
2019-03-23T18:42:06.845Z,1.43
2019-03-23T18:44:35.087Z,1.90
2019-03-23T18:47:03.326Z,1.77
2019-03-23T18:49:31.578Z,1.63
2019-03-23T18:51:59.809Z,1.97
2019-03-23T18:54:28.087Z,1.70
2019-03-23T18:56:56.416Z,1.80
2019-03-23T18:59:24.647Z,2.17
2019-03-23T19:01:53.978Z,1.83
2019-03-23T19:04:22.233Z,1.83
2019-03-23T19:06:50.469Z,1.90
2019-03-23T19:09:18.701Z,1.77
2019-03-23T19:11:47.039Z,1.77
2019-03-23T19:14:15.273Z,1.82
2019-03-23T19:16:43.509Z,1.57
2019-03-23T19:19:11.750Z,1.40
2019-03-23T19:21:41.614Z,1.90
2019-03-23T19:24:09.862Z,1.77
2019-03-23T19:26:38.135Z,2.27
2019-03-23T19:29:06.707Z,2.17
2019-03-23T19:31:34.951Z,1.80
2019-03-23T19:34:03.424Z,1.70
2019-03-23T19:36:32.893Z,1.87
2019-03-23T19:39:01.278Z,1.83
2019-03-23T19:41:29.913Z,1.83
2019-03-23T19:43:58.239Z,1.43
2019-03-23T19:46:26.639Z,2.33
2019-03-23T19:48:54.900Z,1.83
2019-03-23T19:51:23.210Z,1.57
2019-03-23T19:53:51.526Z,1.50
2019-03-23T19:56:19.767Z,1.67
2019-03-23T19:58:48.021Z,2.40
2019-03-23T20:01:16.383Z,2.10
2019-03-23T20:03:44.647Z,2.10
2019-03-23T20:06:13.025Z,1.93
2019-03-23T20:08:41.271Z,1.90
2019-03-23T20:11:09.778Z,1.67
2019-03-23T20:13:38.018Z,1.80
2019-03-23T20:16:06.660Z,2.40
2019-03-23T20:18:34.915Z,1.80
2019-03-23T20:21:03.221Z,1.40
2019-03-23T20:23:31.462Z,1.13
2019-03-23T20:25:59.718Z,1.72
2019-03-23T20:28:27.954Z,1.80
2019-03-23T20:30:56.237Z,1.67
2019-03-23T20:33:24.476Z,1.85
2019-03-23T20:35:52.746Z,2.00
2019-03-23T20:38:21.070Z,1.90
2019-03-23T20:40:49.410Z,1.90
2019-03-23T20:43:18.055Z,2.17
2019-03-23T20:45:46.290Z,2.40
2019-03-23T20:48:14.650Z,1.98
2019-03-23T20:50:42.893Z,1.90
2019-03-23T20:53:11.300Z,1.77
2019-03-23T20:55:39.617Z,2.57
2019-03-23T20:58:07.899Z,1.73
2019-03-23T21:00:36.161Z,1.83
2019-03-23T21:03:04.511Z,2.23
2019-03-23T21:05:34.128Z,1.73
2019-03-23T21:08:03.447Z,2.00
2019-03-23T21:10:31.702Z,2.30
2019-03-23T21:13:01.231Z,1.83
2019-03-23T21:15:30.826Z,1.93
2019-03-23T21:17:59.118Z,1.98
2019-03-23T21:20:29.057Z,2.00
2019-03-23T21:22:57.289Z,2.03
2019-03-23T21:25:25.547Z,2.07
2019-03-23T21:27:53.857Z,1.73
2019-03-23T21:30:22.098Z,1.93
2019-03-23T21:32:50.338Z,2.07
2019-03-23T21:35:18.585Z,1.85
2019-03-23T21:37:46.819Z,2.50
2019-03-23T21:40:15.111Z,2.53
2019-03-23T21:42:43.345Z,2.43
2019-03-23T21:45:11.586Z,1.67
2019-03-23T21:47:39.856Z,2.20
2019-03-23T21:50:08.354Z,2.13
2019-03-23T21:52:36.718Z,2.47
2019-03-23T21:55:06.206Z,3.12
2019-03-23T21:57:34.612Z,2.87
2019-03-23T22:00:03.026Z,2.90
2019-03-23T22:02:31.363Z,2.83
2019-03-23T22:04:59.633Z,2.70
2019-03-23T22:07:27.869Z,2.63
2019-03-23T22:09:57.608Z,2.93
2019-03-23T22:12:26.040Z,2.37
2019-03-23T22:14:54.296Z,2.47
2019-03-23T22:17:22.547Z,2.70
2019-03-23T22:19:50.802Z,2.60
2019-03-23T22:22:19.138Z,2.23
2019-03-23T22:24:47.508Z,2.27
2019-03-23T22:27:19.215Z,2.17
2019-03-23T22:29:47.314Z,2.10
2019-03-23T22:32:15.552Z,2.22
2019-03-23T22:34:43.955Z,3.37
2019-03-23T22:37:12.185Z,1.97
2019-03-23T22:39:40.798Z,2.03
2019-03-23T22:42:09.099Z,2.23
2019-03-23T22:44:37.329Z,2.20
2019-03-23T22:47:06.495Z,2.70
2019-03-23T22:49:34.752Z,2.07
2019-03-23T22:52:04.160Z,2.20
2019-03-23T22:54:32.406Z,2.10
2019-03-23T22:57:00.646Z,2.37
2019-03-23T22:59:29.031Z,2.23
2019-03-23T23:01:57.501Z,2.90
2019-03-23T23:04:25.735Z,2.13
2019-03-23T23:06:53.974Z,2.20
2019-03-23T23:09:24.772Z,2.13
2019-03-23T23:11:53.005Z,2.37
2019-03-23T23:14:21.278Z,2.60
2019-03-23T23:16:51.165Z,2.40
2019-03-23T23:19:19.417Z,2.67
2019-03-23T23:21:47.698Z,2.30
2019-03-23T23:24:15.953Z,2.45
2019-03-23T23:26:44.193Z,2.80
2019-03-23T23:29:12.415Z,2.77
2019-03-23T23:31:40.962Z,2.40
2019-03-23T23:34:09.218Z,2.77
2019-03-23T23:36:37.488Z,2.20
2019-03-23T23:39:09.810Z,2.70
2019-03-23T23:41:38.045Z,2.73
2019-03-23T23:44:06.287Z,2.77
2019-03-23T23:46:34.751Z,2.23
2019-03-23T23:49:02.992Z,1.93
2019-03-23T23:51:31.209Z,2.23
2019-03-23T23:53:59.455Z,2.70
2019-03-23T23:56:27.693Z,1.87
2019-03-23T23:58:55.935Z,2.50
